createdAt,value
2022-12-18T00:02:15.927Z,38.90
2022-12-18T00:04:47.539Z,39.00
2022-12-18T00:07:19.165Z,45.00
2022-12-18T00:09:50.726Z,42.70
2022-12-18T00:12:22.311Z,42.10
2022-12-18T00:14:53.921Z,39.60
2022-12-18T00:17:25.481Z,43.50
2022-12-18T00:19:57.081Z,44.30
2022-12-18T00:22:28.728Z,43.50
2022-12-18T00:25:00.317Z,40.00
2022-12-18T00:27:31.950Z,42.90
2022-12-18T00:30:03.544Z,44.10
2022-12-18T00:32:36.316Z,42.00
2022-12-18T00:35:09.291Z,45.20
2022-12-18T00:37:40.895Z,38.30
2022-12-18T00:40:14.417Z,41.20
2022-12-18T00:42:58.412Z,47.20
2022-12-18T00:45:32.730Z,52.50
2022-12-18T00:48:04.473Z,54.60
2022-12-18T00:50:36.291Z,42.40
2022-12-18T00:53:08.358Z,44.00
2022-12-18T00:55:41.026Z,46.40
2022-12-18T00:58:13.643Z,44.70
2022-12-18T01:00:46.048Z,43.90
2022-12-18T01:03:17.942Z,39.90
2022-12-18T01:05:49.697Z,41.00
2022-12-18T01:08:21.285Z,38.40
2022-12-18T01:10:53.054Z,41.10
2022-12-18T01:13:24.679Z,45.10
2022-12-18T01:15:56.381Z,42.80
2022-12-18T01:18:28.016Z,34.70
2022-12-18T01:20:59.658Z,35.60
2022-12-18T01:23:31.253Z,33.20
2022-12-18T01:26:08.325Z,38.00
2022-12-18T01:28:41.086Z,38.10
2022-12-18T01:31:21.849Z,41.00
2022-12-18T01:33:54.488Z,42.40
2022-12-18T01:36:28.134Z,47.60
2022-12-18T01:39:01.112Z,44.80
2022-12-18T01:41:49.102Z,43.80
2022-12-18T01:45:03.823Z,46.50
2022-12-18T01:47:40.122Z,43.70
2022-12-18T01:50:15.627Z,45.70
2022-12-18T01:52:49.957Z,42.60
2022-12-18T01:55:24.799Z,48.10
2022-12-18T01:57:58.609Z,44.30
2022-12-18T02:00:30.731Z,45.30
2022-12-18T02:03:02.798Z,40.50
2022-12-18T02:05:46.249Z,44.80
2022-12-18T02:08:22.843Z,45.90
2022-12-18T02:11:07.324Z,48.60
2022-12-18T02:13:48.229Z,42.70
2022-12-18T02:16:50.595Z,45.40
2022-12-18T02:19:35.311Z,40.40
2022-12-18T02:22:16.047Z,49.30
2022-12-18T02:25:10.055Z,41.90
2022-12-18T02:30:14.525Z,43.50
2022-12-18T02:32:51.833Z,45.90
2022-12-18T02:35:26.669Z,49.50
2022-12-18T02:38:02.369Z,48.70
2022-12-18T02:40:34.163Z,54.30
2022-12-18T02:43:11.237Z,49.40
2022-12-18T02:45:52.699Z,48.40
2022-12-18T02:48:28.030Z,49.60
2022-12-18T02:51:06.259Z,48.40
2022-12-18T02:53:46.155Z,46.70
2022-12-18T02:56:24.713Z,40.80
2022-12-18T02:59:24.997Z,39.60
2022-12-18T03:02:01.235Z,46.40
2022-12-18T03:04:39.259Z,38.50
2022-12-18T03:07:21.276Z,35.50
2022-12-18T03:09:58.123Z,34.70
2022-12-18T03:12:34.008Z,38.40
2022-12-18T03:15:17.625Z,43.30
2022-12-18T03:17:54.616Z,48.10
2022-12-18T03:20:54.018Z,47.90
2022-12-18T03:23:27.966Z,41.90
2022-12-18T03:26:07.421Z,40.40
2022-12-18T03:28:44.095Z,50.90
2022-12-18T03:31:27.013Z,44.10
2022-12-18T03:34:03.705Z,42.00
2022-12-18T03:36:35.499Z,48.30
2022-12-18T03:39:08.128Z,45.40
2022-12-18T03:42:25.914Z,47.70
2022-12-18T03:45:17.028Z,45.40
2022-12-18T03:48:00.720Z,47.20
2022-12-18T03:50:39.981Z,44.40
2022-12-18T03:53:22.528Z,42.60
2022-12-18T03:55:55.779Z,45.10
2022-12-18T03:58:29.889Z,38.90
2022-12-18T04:01:05.924Z,43.50
2022-12-18T04:03:38.616Z,43.20
2022-12-18T04:06:12.135Z,47.20
2022-12-18T04:08:44.779Z,44.30
2022-12-18T04:11:18.657Z,53.10
2022-12-18T04:13:50.348Z,44.60
2022-12-18T04:16:23.816Z,49.30
2022-12-18T04:21:28.764Z,44.00
2022-12-18T04:24:00.398Z,41.20
2022-12-18T04:26:32.114Z,45.20
2022-12-18T04:29:03.871Z,49.90
2022-12-18T04:31:35.662Z,40.30
2022-12-18T04:34:07.565Z,35.10
2022-12-18T04:36:39.179Z,31.50
2022-12-18T04:39:11.271Z,35.50
2022-12-18T04:41:43.076Z,38.90
2022-12-18T04:44:23.425Z,36.00
2022-12-18T04:47:16.224Z,35.70
2022-12-18T04:49:53.021Z,35.20
2022-12-18T04:52:25.886Z,34.20
2022-12-18T04:54:57.508Z,43.20
2022-12-18T04:57:29.280Z,47.10
2022-12-18T05:00:00.995Z,41.80
2022-12-18T05:02:35.639Z,47.10
2022-12-18T05:05:08.834Z,47.50
2022-12-18T05:08:01.250Z,46.50
2022-12-18T05:10:37.988Z,49.50
2022-12-18T05:13:12.819Z,41.20
2022-12-18T05:15:44.603Z,46.50
2022-12-18T05:18:16.432Z,46.70
2022-12-18T05:20:50.986Z,44.50
2022-12-18T05:23:26.218Z,41.50
2022-12-18T05:25:59.429Z,46.00
2022-12-18T05:28:33.016Z,45.70
2022-12-18T05:31:25.580Z,42.50
2022-12-18T05:33:57.325Z,42.80
2022-12-18T05:36:51.686Z,43.60
2022-12-18T05:39:54.850Z,43.90
2022-12-18T05:42:18.759Z,40.80
2022-12-18T05:44:50.345Z,43.10
2022-12-18T05:47:22.179Z,43.40
2022-12-18T05:49:53.797Z,42.50
2022-12-18T05:52:30.492Z,44.40
2022-12-18T05:55:06.450Z,45.50
2022-12-18T05:57:38.142Z,51.00
2022-12-18T06:00:12.384Z,52.00
2022-12-18T06:02:44.030Z,44.50
2022-12-18T06:05:15.837Z,45.20
2022-12-18T06:07:47.615Z,42.70
2022-12-18T06:10:19.386Z,44.30
2022-12-18T06:12:51.265Z,39.40
2022-12-18T06:15:23.060Z,33.60
2022-12-18T06:17:57.337Z,39.70
2022-12-18T06:20:33.677Z,41.90
2022-12-18T06:23:05.823Z,40.00
2022-12-18T06:25:39.061Z,37.40
2022-12-18T06:28:11.004Z,50.40
2022-12-18T06:30:45.128Z,52.50
2022-12-18T06:33:19.739Z,49.40
2022-12-18T06:35:52.203Z,50.80
2022-12-18T06:38:26.011Z,49.00
2022-12-18T06:41:00.688Z,47.80
2022-12-18T06:43:58.167Z,55.40
2022-12-18T06:46:45.311Z,57.80
2022-12-18T06:49:16.996Z,56.00
2022-12-18T06:51:54.190Z,58.30
2022-12-18T06:55:14.132Z,53.20
2022-12-18T06:57:34.404Z,60.30
2022-12-18T07:00:08.104Z,58.80
2022-12-18T07:02:39.999Z,63.90
2022-12-18T07:05:12.375Z,62.70
2022-12-18T07:07:44.024Z,58.40
2022-12-18T07:10:15.674Z,58.20
2022-12-18T07:12:47.499Z,60.10
2022-12-18T07:15:21.746Z,66.90
2022-12-18T07:17:56.199Z,68.60
2022-12-18T07:20:50.333Z,89.60
2022-12-18T07:23:45.195Z,104.30
2022-12-18T07:26:31.507Z,122.00
2022-12-18T07:29:04.270Z,96.50
2022-12-18T07:31:36.009Z,95.70
2022-12-18T07:34:30.702Z,89.50
2022-12-18T07:36:59.982Z,92.20
2022-12-18T07:39:34.683Z,85.90
2022-12-18T07:42:32.384Z,84.50
2022-12-18T07:45:04.819Z,87.90
2022-12-18T07:47:37.960Z,83.70
2022-12-18T07:50:10.707Z,71.20
2022-12-18T07:52:42.495Z,78.40
2022-12-18T07:55:14.221Z,71.30
2022-12-18T07:57:51.283Z,63.10
2022-12-18T08:00:24.406Z,58.50
2022-12-18T08:02:56.130Z,59.20
2022-12-18T08:05:28.245Z,63.70
2022-12-18T08:08:00.242Z,68.70
2022-12-18T08:10:31.831Z,81.10
2022-12-18T08:13:05.289Z,80.60
2022-12-18T08:15:37.047Z,64.10
2022-12-18T08:18:13.911Z,70.20
2022-12-18T08:20:46.080Z,66.50
2022-12-18T08:23:17.930Z,72.80
2022-12-18T08:25:49.786Z,74.00
2022-12-18T08:28:21.623Z,62.50
2022-12-18T08:30:56.365Z,63.50
2022-12-18T08:33:28.346Z,70.10
2022-12-18T08:35:59.976Z,81.00
2022-12-18T08:38:32.146Z,77.00
2022-12-18T08:41:05.477Z,84.40
2022-12-18T08:46:26.711Z,107.10
2022-12-18T08:48:58.365Z,195.30
2022-12-18T08:51:30.068Z,184.60
2022-12-18T08:54:01.716Z,163.30
2022-12-18T08:56:33.969Z,149.10
2022-12-18T08:59:06.223Z,148.10
2022-12-18T09:01:37.982Z,128.20
2022-12-18T09:04:09.748Z,137.80
2022-12-18T09:06:41.679Z,129.80
2022-12-18T09:09:14.141Z,121.60
2022-12-18T09:11:45.829Z,116.70
2022-12-18T09:14:17.419Z,128.20
2022-12-18T09:16:49.033Z,122.40
2022-12-18T09:19:20.673Z,121.60
2022-12-18T09:21:52.315Z,116.10
2022-12-18T09:24:31.349Z,121.20
2022-12-18T09:27:03.004Z,116.40
2022-12-18T09:29:34.915Z,122.00
2022-12-18T09:32:07.079Z,113.20
2022-12-18T09:34:38.874Z,108.20
2022-12-18T09:37:10.683Z,99.40
2022-12-18T09:39:43.024Z,85.70
2022-12-18T09:42:22.909Z,85.40
2022-12-18T09:44:56.285Z,88.60
2022-12-18T09:50:04.488Z,88.50
2022-12-18T09:52:40.054Z,79.60
2022-12-18T09:55:18.555Z,90.70
2022-12-18T09:57:54.443Z,78.60
2022-12-18T10:00:27.496Z,73.00
2022-12-18T10:03:05.534Z,78.50
2022-12-18T10:05:44.674Z,79.70
2022-12-18T10:08:24.668Z,93.60
2022-12-18T10:11:00.105Z,82.30
2022-12-18T10:13:36.745Z,99.40
2022-12-18T10:16:16.344Z,82.60
2022-12-18T10:19:03.506Z,81.30
2022-12-18T10:21:40.785Z,91.50
2022-12-18T10:24:30.959Z,82.60
2022-12-18T10:27:14.669Z,83.50
2022-12-18T10:32:23.124Z,89.90
2022-12-18T10:35:00.094Z,130.60
2022-12-18T10:37:33.328Z,88.90
2022-12-18T10:40:21.503Z,92.50
2022-12-18T10:43:14.722Z,93.30
2022-12-18T10:46:02.459Z,94.60
2022-12-18T10:48:35.833Z,87.30
2022-12-18T10:51:12.157Z,79.90
2022-12-18T10:53:54.043Z,81.70
2022-12-18T10:56:27.201Z,89.10
2022-12-18T10:59:04.954Z,78.00
2022-12-18T11:01:55.888Z,83.40
2022-12-18T11:04:30.233Z,91.90
2022-12-18T11:07:04.916Z,81.10
2022-12-18T11:09:38.139Z,74.40
2022-12-18T11:12:19.998Z,77.10
2022-12-18T11:14:54.118Z,86.50
2022-12-18T11:17:31.159Z,93.50
2022-12-18T11:20:04.621Z,79.40
2022-12-18T11:22:39.185Z,86.60
2022-12-18T11:25:35.676Z,89.20
2022-12-18T11:28:26.535Z,96.20
2022-12-18T11:31:18.681Z,86.90
2022-12-18T11:34:27.550Z,81.20
2022-12-18T11:36:52.041Z,87.80
2022-12-18T11:39:33.508Z,84.80
2022-12-18T11:42:12.513Z,66.90
2022-12-18T11:44:50.688Z,54.90
2022-12-18T11:47:30.677Z,50.90
2022-12-18T11:50:08.086Z,56.30
2022-12-18T11:52:42.735Z,49.70
2022-12-18T11:55:18.522Z,49.10
2022-12-18T11:57:59.820Z,56.30
2022-12-18T12:00:31.621Z,55.50
2022-12-18T12:03:19.579Z,56.50
2022-12-18T12:06:07.071Z,53.70
2022-12-18T12:08:53.313Z,54.40
2022-12-18T12:11:31.693Z,58.30
2022-12-18T12:14:19.366Z,58.00
2022-12-18T12:16:59.172Z,59.90
2022-12-18T12:19:45.576Z,62.50
2022-12-18T12:22:26.532Z,62.60
2022-12-18T12:25:23.060Z,59.10
2022-12-18T12:28:03.291Z,73.60
2022-12-18T12:30:43.563Z,58.40
2022-12-18T12:33:29.846Z,69.80
2022-12-18T12:36:11.832Z,70.70
2022-12-18T12:38:52.378Z,66.00
2022-12-18T12:41:45.490Z,53.90
2022-12-18T12:44:24.224Z,56.90
2022-12-18T12:47:00.408Z,57.00
2022-12-18T12:49:40.557Z,57.80
2022-12-18T12:52:17.828Z,57.90
2022-12-18T12:54:51.745Z,49.70
2022-12-18T12:57:32.652Z,66.90
2022-12-18T13:00:08.980Z,66.10
2022-12-18T13:02:47.224Z,66.50
2022-12-18T13:05:26.288Z,75.30
2022-12-18T13:08:21.582Z,62.50
2022-12-18T13:11:14.737Z,65.40
2022-12-18T13:16:30.177Z,55.30
2022-12-18T13:19:02.114Z,67.90
2022-12-18T13:21:35.313Z,63.00
2022-12-18T13:26:56.721Z,59.20
2022-12-18T13:29:48.139Z,50.20
2022-12-18T13:32:25.183Z,63.30
2022-12-18T13:35:32.227Z,60.60
2022-12-18T13:38:24.341Z,67.00
2022-12-18T13:41:01.669Z,75.60
2022-12-18T13:43:38.338Z,69.40
2022-12-18T13:46:24.690Z,67.00
2022-12-18T13:49:00.297Z,81.90
2022-12-18T13:51:34.079Z,85.20
2022-12-18T13:54:16.224Z,75.70
2022-12-18T13:56:49.810Z,80.20
2022-12-18T13:59:25.049Z,79.90
2022-12-18T14:01:59.843Z,86.20
2022-12-18T14:04:36.530Z,77.40
2022-12-18T14:07:13.622Z,77.40
2022-12-18T14:09:49.914Z,69.90
2022-12-18T14:12:43.374Z,74.70
2022-12-18T14:15:31.730Z,75.60
2022-12-18T14:18:11.793Z,75.90
2022-12-18T14:20:52.128Z,77.30
2022-12-18T14:23:36.257Z,75.40
2022-12-18T14:26:30.070Z,73.60
2022-12-18T14:29:03.072Z,70.70
2022-12-18T14:31:34.832Z,77.50
2022-12-18T14:34:06.443Z,78.80
2022-12-18T14:36:40.972Z,88.00
2022-12-18T14:39:35.553Z,80.50
2022-12-18T14:42:07.559Z,93.10
2022-12-18T14:44:50.736Z,83.20
2022-12-18T14:47:29.365Z,91.70
2022-12-18T14:50:01.877Z,100.40
2022-12-18T14:52:35.288Z,104.70
2022-12-18T14:57:43.200Z,116.10
2022-12-18T15:00:21.189Z,113.80
2022-12-18T15:02:55.455Z,125.20
2022-12-18T15:05:31.234Z,134.50
2022-12-18T15:08:04.139Z,148.90
2022-12-18T15:10:36.600Z,161.20
2022-12-18T15:13:22.540Z,152.40
2022-12-18T15:15:55.562Z,150.00
2022-12-18T15:18:32.217Z,152.20
2022-12-18T15:21:12.312Z,142.50
2022-12-18T15:23:53.349Z,118.90
2022-12-18T15:26:25.612Z,109.80
2022-12-18T15:28:59.525Z,95.10
2022-12-18T15:31:35.870Z,87.70
2022-12-18T15:34:26.232Z,97.20
2022-12-18T15:36:58.075Z,96.30
2022-12-18T15:39:30.368Z,90.20
2022-12-18T15:42:25.403Z,100.80
2022-12-18T15:44:57.023Z,104.80
2022-12-18T15:47:29.292Z,86.60
2022-12-18T15:50:00.877Z,119.40
2022-12-18T15:52:33.809Z,77.40
2022-12-18T15:55:23.268Z,124.80
2022-12-18T15:57:54.973Z,140.50
2022-12-18T16:00:26.581Z,128.10
2022-12-18T16:02:58.355Z,136.20
2022-12-18T16:05:31.844Z,122.30
2022-12-18T16:10:33.736Z,138.80
2022-12-18T16:13:05.390Z,149.20
2022-12-18T16:15:37.345Z,146.90
2022-12-18T16:18:09.158Z,125.30
2022-12-18T16:20:41.763Z,98.70
2022-12-18T16:23:13.348Z,106.50
2022-12-18T16:25:45.059Z,90.10
2022-12-18T16:28:16.740Z,107.20
2022-12-18T16:30:49.002Z,107.00
2022-12-18T16:33:20.713Z,103.60
2022-12-18T16:35:56.181Z,102.10
2022-12-18T16:38:28.019Z,109.40
2022-12-18T16:41:17.361Z,125.80
2022-12-18T16:43:54.671Z,127.80
2022-12-18T16:46:26.687Z,108.50
2022-12-18T16:49:00.740Z,115.00
2022-12-18T16:51:36.301Z,122.00
2022-12-18T16:54:10.998Z,126.00
2022-12-18T16:56:45.300Z,107.90
2022-12-18T16:59:17.086Z,104.50
2022-12-18T17:01:49.810Z,109.70
2022-12-18T17:04:21.590Z,118.40
2022-12-18T17:06:53.979Z,101.30
2022-12-18T17:09:26.273Z,99.20
2022-12-18T17:11:58.054Z,107.00
2022-12-18T17:14:29.854Z,116.50
2022-12-18T17:19:53.791Z,120.30
2022-12-18T17:22:25.420Z,124.40
2022-12-18T17:24:57.158Z,123.40
2022-12-18T17:27:28.817Z,147.30
2022-12-18T17:30:00.513Z,125.40
2022-12-18T17:32:32.164Z,123.90
2022-12-18T17:35:07.137Z,130.40
2022-12-18T17:37:39.179Z,123.80
2022-12-18T17:40:12.839Z,134.40
2022-12-18T17:42:44.509Z,118.00
2022-12-18T17:45:16.226Z,125.60
2022-12-18T17:47:47.845Z,135.30
2022-12-18T17:50:19.836Z,124.60
2022-12-18T17:52:51.603Z,119.40
2022-12-18T17:55:23.297Z,125.90
2022-12-18T17:57:55.736Z,115.90
2022-12-18T18:00:27.505Z,124.60
2022-12-18T18:02:59.589Z,119.40
2022-12-18T18:05:32.050Z,130.50
2022-12-18T18:08:07.511Z,134.40
2022-12-18T18:10:40.441Z,129.20
2022-12-18T18:13:46.664Z,126.50
2022-12-18T18:16:19.028Z,122.80
2022-12-18T18:18:50.687Z,131.20
2022-12-18T18:21:22.301Z,118.70
2022-12-18T18:23:54.548Z,123.90
2022-12-18T18:26:29.152Z,115.90
2022-12-18T18:29:03.030Z,117.20
2022-12-18T18:31:41.334Z,117.60
2022-12-18T18:34:17.147Z,118.50
2022-12-18T18:36:48.889Z,126.90
2022-12-18T18:39:20.985Z,124.00
2022-12-18T18:41:52.802Z,105.50
2022-12-18T18:44:26.284Z,108.40
2022-12-18T18:46:59.877Z,107.90
2022-12-18T18:49:33.085Z,110.10
2022-12-18T18:52:05.208Z,116.30
2022-12-18T18:54:36.828Z,121.80
2022-12-18T18:57:30.109Z,108.20
2022-12-18T19:00:01.991Z,133.90
2022-12-18T19:02:33.848Z,110.50
2022-12-18T19:05:06.237Z,127.10
2022-12-18T19:07:37.910Z,140.30
2022-12-18T19:10:11.273Z,130.30
2022-12-18T19:13:00.499Z,138.50
2022-12-18T19:15:32.109Z,119.80
2022-12-18T19:18:03.921Z,133.20
2022-12-18T19:20:35.952Z,147.30
2022-12-18T19:23:07.732Z,144.30
2022-12-18T19:25:42.095Z,146.60
2022-12-18T19:28:21.293Z,138.20
2022-12-18T19:30:58.823Z,140.00
2022-12-18T19:33:48.198Z,141.40
2022-12-18T19:36:23.258Z,126.00
2022-12-18T19:38:56.670Z,125.80
2022-12-18T19:41:31.317Z,141.80
2022-12-18T19:44:07.814Z,142.20
2022-12-18T19:46:40.699Z,132.50
2022-12-18T19:49:38.478Z,132.50
2022-12-18T19:52:05.493Z,125.60
2022-12-18T19:54:37.264Z,135.50
2022-12-18T19:57:11.464Z,132.60
2022-12-18T19:59:43.168Z,127.30
2022-12-18T20:02:16.689Z,133.90
2022-12-18T20:04:48.908Z,132.30
2022-12-18T20:07:20.580Z,132.40
2022-12-18T20:09:59.535Z,132.30
2022-12-18T20:15:06.664Z,129.90
2022-12-18T20:17:39.164Z,132.40
2022-12-18T20:20:12.412Z,139.50
2022-12-18T20:22:45.092Z,123.90
2022-12-18T20:25:19.277Z,125.60
2022-12-18T20:27:50.971Z,122.20
2022-12-18T20:30:22.619Z,126.40
2022-12-18T20:32:54.303Z,126.40
2022-12-18T20:35:28.087Z,127.90
2022-12-18T20:38:00.753Z,128.10
2022-12-18T20:40:32.774Z,128.20
2022-12-18T20:43:04.501Z,113.20
2022-12-18T20:45:37.195Z,118.00
2022-12-18T20:48:11.492Z,124.50
2022-12-18T20:50:43.343Z,128.50
2022-12-18T20:53:14.997Z,125.70
2022-12-18T20:55:46.555Z,123.40
2022-12-18T20:58:18.683Z,135.90
2022-12-18T21:00:50.475Z,125.70
2022-12-18T21:03:22.218Z,124.90
2022-12-18T21:05:53.869Z,128.50
2022-12-18T21:08:25.431Z,124.40
2022-12-18T21:10:57.048Z,124.30
2022-12-18T21:13:28.989Z,130.70
2022-12-18T21:16:02.586Z,121.70
2022-12-18T21:18:35.011Z,128.10
2022-12-18T21:21:06.917Z,121.70
2022-12-18T21:23:38.597Z,120.30
2022-12-18T21:26:22.202Z,126.40
2022-12-18T21:28:58.094Z,128.90
2022-12-18T21:31:32.204Z,153.20
2022-12-18T21:34:04.632Z,193.60
2022-12-18T21:36:36.923Z,216.80
2022-12-18T21:39:08.559Z,219.40
2022-12-18T21:41:57.869Z,202.60
2022-12-18T21:44:29.598Z,216.30
2022-12-18T21:47:11.996Z,209.80
2022-12-18T21:49:53.588Z,212.90
2022-12-18T21:52:32.007Z,196.60
2022-12-18T21:55:09.600Z,202.30
2022-12-18T21:57:41.982Z,186.70
2022-12-18T22:00:18.388Z,194.80
2022-12-18T22:03:04.909Z,208.30
2022-12-18T22:05:43.204Z,178.90
2022-12-18T22:08:15.062Z,191.80
2022-12-18T22:10:46.892Z,179.40
2022-12-18T22:13:18.768Z,177.80
2022-12-18T22:15:50.617Z,172.80
2022-12-18T22:18:22.860Z,191.50
2022-12-18T22:21:04.274Z,176.10
2022-12-18T22:23:36.125Z,191.70
2022-12-18T22:26:07.745Z,186.70
2022-12-18T22:28:56.831Z,170.10
2022-12-18T22:31:28.535Z,167.80
2022-12-18T22:34:00.167Z,157.90
2022-12-18T22:36:38.165Z,150.20
2022-12-18T22:39:13.773Z,150.30
2022-12-18T22:41:45.502Z,132.70
2022-12-18T22:44:18.202Z,124.50
2022-12-18T22:47:05.409Z,121.90
2022-12-18T22:49:39.681Z,157.30
2022-12-18T22:52:12.579Z,140.80
2022-12-18T22:54:46.297Z,146.70
2022-12-18T22:57:17.901Z,128.40
2022-12-18T22:59:49.680Z,139.80
2022-12-18T23:02:21.586Z,133.10
2022-12-18T23:04:53.582Z,133.80
2022-12-18T23:07:25.277Z,128.80
2022-12-18T23:10:00.989Z,130.30
2022-12-18T23:12:32.917Z,139.40
2022-12-18T23:15:08.287Z,158.50
2022-12-18T23:17:40.008Z,133.00
2022-12-18T23:20:13.803Z,140.70
2022-12-18T23:22:45.451Z,125.70
2022-12-18T23:25:17.262Z,120.20
2022-12-18T23:27:48.947Z,127.10
2022-12-18T23:30:20.887Z,138.10
2022-12-18T23:32:52.566Z,127.80
2022-12-18T23:35:24.397Z,145.80
2022-12-18T23:38:00.004Z,139.30
2022-12-18T23:40:32.714Z,119.90
2022-12-18T23:43:04.358Z,121.30
2022-12-18T23:45:39.832Z,132.40
2022-12-18T23:48:11.408Z,133.90
2022-12-18T23:50:43.132Z,133.60
2022-12-18T23:53:15.180Z,135.20
2022-12-18T23:55:47.338Z,130.10
2022-12-18T23:58:21.759Z,132.90
